sensor_id;sensor_type;location;lat;lon;timestamp;temperature;humidity
15997;DHT22;8103;51.340;12.326;2024-01-30T00:00:50;5.10;95.80
15997;DHT22;8103;51.340;12.326;2024-01-30T00:03:17;5.10;95.80
15997;DHT22;8103;51.340;12.326;2024-01-30T00:05:44;5.10;95.90
15997;DHT22;8103;51.340;12.326;2024-01-30T00:08:11;5.10;95.90
15997;DHT22;8103;51.340;12.326;2024-01-30T00:10:37;5.10;95.90
15997;DHT22;8103;51.340;12.326;2024-01-30T00:13:04;5.10;96.20
15997;DHT22;8103;51.340;12.326;2024-01-30T00:15:31;5.00;95.90
15997;DHT22;8103;51.340;12.326;2024-01-30T00:17:57;5.10;95.80
15997;DHT22;8103;51.340;12.326;2024-01-30T00:20:24;5.10;95.70
15997;DHT22;8103;51.340;12.326;2024-01-30T00:22:51;5.10;95.70
15997;DHT22;8103;51.340;12.326;2024-01-30T00:25:17;5.10;95.50
15997;DHT22;8103;51.340;12.326;2024-01-30T00:27:44;5.20;95.40
15997;DHT22;8103;51.340;12.326;2024-01-30T00:30:11;5.20;95.30
15997;DHT22;8103;51.340;12.326;2024-01-30T00:32:38;5.20;95.20
15997;DHT22;8103;51.340;12.326;2024-01-30T00:35:05;5.30;95.10
15997;DHT22;8103;51.340;12.326;2024-01-30T00:37:32;5.30;94.90
15997;DHT22;8103;51.340;12.326;2024-01-30T00:39:59;5.30;94.90
15997;DHT22;8103;51.340;12.326;2024-01-30T00:42:26;5.30;94.70
15997;DHT22;8103;51.340;12.326;2024-01-30T00:44:52;5.30;94.60
15997;DHT22;8103;51.340;12.326;2024-01-30T00:47:19;5.40;94.50
15997;DHT22;8103;51.340;12.326;2024-01-30T00:49:46;5.40;94.30
15997;DHT22;8103;51.340;12.326;2024-01-30T00:52:12;5.40;94.20
15997;DHT22;8103;51.340;12.326;2024-01-30T00:54:39;5.40;94.10
15997;DHT22;8103;51.340;12.326;2024-01-30T00:57:06;5.40;94.00
15997;DHT22;8103;51.340;12.326;2024-01-30T00:59:33;5.40;93.90
15997;DHT22;8103;51.340;12.326;2024-01-30T01:02:00;5.40;93.90
15997;DHT22;8103;51.340;12.326;2024-01-30T01:04:27;5.40;93.80
15997;DHT22;8103;51.340;12.326;2024-01-30T01:06:53;5.40;93.70
15997;DHT22;8103;51.340;12.326;2024-01-30T01:09:20;5.40;93.80
15997;DHT22;8103;51.340;12.326;2024-01-30T01:11:47;5.40;93.70
15997;DHT22;8103;51.340;12.326;2024-01-30T01:14:14;5.40;93.70
15997;DHT22;8103;51.340;12.326;2024-01-30T01:16:41;5.30;93.60
15997;DHT22;8103;51.340;12.326;2024-01-30T01:19:07;5.40;93.60
15997;DHT22;8103;51.340;12.326;2024-01-30T01:21:34;5.30;93.50
15997;DHT22;8103;51.340;12.326;2024-01-30T01:24:01;5.30;93.40
15997;DHT22;8103;51.340;12.326;2024-01-30T01:26:27;5.30;93.40
15997;DHT22;8103;51.340;12.326;2024-01-30T01:28:54;5.30;93.40
15997;DHT22;8103;51.340;12.326;2024-01-30T01:31:21;5.30;93.40
15997;DHT22;8103;51.340;12.326;2024-01-30T01:33:51;5.30;93.30
15997;DHT22;8103;51.340;12.326;2024-01-30T01:36:17;5.30;93.20
15997;DHT22;8103;51.340;12.326;2024-01-30T01:38:44;5.40;93.10
15997;DHT22;8103;51.340;12.326;2024-01-30T01:41:11;5.40;93.10
15997;DHT22;8103;51.340;12.326;2024-01-30T01:43:38;5.30;93.40
15997;DHT22;8103;51.340;12.326;2024-01-30T01:46:06;5.30;93.00
15997;DHT22;8103;51.340;12.326;2024-01-30T01:48:33;5.30;93.00
15997;DHT22;8103;51.340;12.326;2024-01-30T01:51:00;5.30;93.00
15997;DHT22;8103;51.340;12.326;2024-01-30T01:53:27;5.30;93.00
15997;DHT22;8103;51.340;12.326;2024-01-30T01:55:55;5.30;93.00
15997;DHT22;8103;51.340;12.326;2024-01-30T01:58:22;5.30;93.00
15997;DHT22;8103;51.340;12.326;2024-01-30T02:00:50;5.30;93.00
15997;DHT22;8103;51.340;12.326;2024-01-30T02:03:18;5.30;93.00
15997;DHT22;8103;51.340;12.326;2024-01-30T02:05:48;5.30;93.10
15997;DHT22;8103;51.340;12.326;2024-01-30T02:08:15;5.30;93.10
15997;DHT22;8103;51.340;12.326;2024-01-30T02:10:42;5.30;93.10
15997;DHT22;8103;51.340;12.326;2024-01-30T02:13:09;5.30;93.10
15997;DHT22;8103;51.340;12.326;2024-01-30T02:15:35;5.30;93.20
15997;DHT22;8103;51.340;12.326;2024-01-30T02:18:02;5.30;93.20
15997;DHT22;8103;51.340;12.326;2024-01-30T02:20:30;5.20;93.20
15997;DHT22;8103;51.340;12.326;2024-01-30T02:22:58;5.20;93.30
15997;DHT22;8103;51.340;12.326;2024-01-30T02:25:40;5.20;93.40
15997;DHT22;8103;51.340;12.326;2024-01-30T02:28:14;5.20;93.50
15997;DHT22;8103;51.340;12.326;2024-01-30T02:30:42;5.20;93.50
15997;DHT22;8103;51.340;12.326;2024-01-30T02:33:09;5.20;93.50
15997;DHT22;8103;51.340;12.326;2024-01-30T02:35:36;5.20;93.50
15997;DHT22;8103;51.340;12.326;2024-01-30T02:38:03;5.20;93.80
15997;DHT22;8103;51.340;12.326;2024-01-30T02:40:30;5.20;93.50
15997;DHT22;8103;51.340;12.326;2024-01-30T02:42:58;5.20;93.50
15997;DHT22;8103;51.340;12.326;2024-01-30T02:45:25;5.20;93.40
15997;DHT22;8103;51.340;12.326;2024-01-30T02:47:52;5.20;93.40
15997;DHT22;8103;51.340;12.326;2024-01-30T02:50:19;5.20;93.40
15997;DHT22;8103;51.340;12.326;2024-01-30T02:52:45;5.20;93.40
15997;DHT22;8103;51.340;12.326;2024-01-30T02:55:12;5.20;93.30
15997;DHT22;8103;51.340;12.326;2024-01-30T02:57:39;5.20;93.20
15997;DHT22;8103;51.340;12.326;2024-01-30T03:00:06;5.20;93.20
15997;DHT22;8103;51.340;12.326;2024-01-30T03:02:36;5.20;93.10
15997;DHT22;8103;51.340;12.326;2024-01-30T03:05:05;5.20;93.20
15997;DHT22;8103;51.340;12.326;2024-01-30T03:07:33;5.20;93.20
15997;DHT22;8103;51.340;12.326;2024-01-30T03:10:00;5.20;93.20
15997;DHT22;8103;51.340;12.326;2024-01-30T03:12:27;5.10;93.20
15997;DHT22;8103;51.340;12.326;2024-01-30T03:14:54;5.10;93.30
15997;DHT22;8103;51.340;12.326;2024-01-30T03:17:21;5.10;93.40
15997;DHT22;8103;51.340;12.326;2024-01-30T03:19:48;5.00;93.50
15997;DHT22;8103;51.340;12.326;2024-01-30T03:22:14;5.00;93.60
15997;DHT22;8103;51.340;12.326;2024-01-30T03:24:41;5.00;93.70
15997;DHT22;8103;51.340;12.326;2024-01-30T03:27:08;4.90;93.90
15997;DHT22;8103;51.340;12.326;2024-01-30T03:29:35;4.90;94.00
15997;DHT22;8103;51.340;12.326;2024-01-30T03:32:02;4.80;94.10
15997;DHT22;8103;51.340;12.326;2024-01-30T03:34:30;4.80;94.20
15997;DHT22;8103;51.340;12.326;2024-01-30T03:36:57;4.80;94.20
15997;DHT22;8103;51.340;12.326;2024-01-30T03:39:24;4.80;94.20
15997;DHT22;8103;51.340;12.326;2024-01-30T03:41:51;4.70;94.30
15997;DHT22;8103;51.340;12.326;2024-01-30T03:44:18;4.70;94.40
15997;DHT22;8103;51.340;12.326;2024-01-30T03:46:44;4.70;94.40
15997;DHT22;8103;51.340;12.326;2024-01-30T03:49:12;4.70;94.40
15997;DHT22;8103;51.340;12.326;2024-01-30T03:51:39;4.60;94.40
15997;DHT22;8103;51.340;12.326;2024-01-30T03:54:05;4.60;94.40
15997;DHT22;8103;51.340;12.326;2024-01-30T03:56:32;4.60;94.50
15997;DHT22;8103;51.340;12.326;2024-01-30T03:58:59;4.60;94.50
15997;DHT22;8103;51.340;12.326;2024-01-30T04:01:27;4.60;94.40
15997;DHT22;8103;51.340;12.326;2024-01-30T04:03:53;4.60;94.40
15997;DHT22;8103;51.340;12.326;2024-01-30T04:06:20;4.60;94.30
15997;DHT22;8103;51.340;12.326;2024-01-30T04:08:47;4.60;94.20
15997;DHT22;8103;51.340;12.326;2024-01-30T04:11:13;4.60;94.10
15997;DHT22;8103;51.340;12.326;2024-01-30T04:13:40;4.60;94.10
15997;DHT22;8103;51.340;12.326;2024-01-30T04:16:19;4.60;94.10
15997;DHT22;8103;51.340;12.326;2024-01-30T04:18:47;4.60;94.00
15997;DHT22;8103;51.340;12.326;2024-01-30T04:21:14;4.60;94.00
15997;DHT22;8103;51.340;12.326;2024-01-30T04:23:41;4.60;94.00
15997;DHT22;8103;51.340;12.326;2024-01-30T04:26:08;4.60;93.90
15997;DHT22;8103;51.340;12.326;2024-01-30T04:28:35;4.60;93.90
15997;DHT22;8103;51.340;12.326;2024-01-30T04:31:01;4.60;93.80
15997;DHT22;8103;51.340;12.326;2024-01-30T04:33:28;4.60;93.80
15997;DHT22;8103;51.340;12.326;2024-01-30T04:35:55;4.60;93.70
15997;DHT22;8103;51.340;12.326;2024-01-30T04:38:22;4.70;93.60
15997;DHT22;8103;51.340;12.326;2024-01-30T04:40:48;4.60;93.50
15997;DHT22;8103;51.340;12.326;2024-01-30T04:43:15;4.70;93.50
15997;DHT22;8103;51.340;12.326;2024-01-30T04:45:42;4.70;93.40
15997;DHT22;8103;51.340;12.326;2024-01-30T04:48:09;4.70;93.30
15997;DHT22;8103;51.340;12.326;2024-01-30T04:50:35;4.70;93.30
15997;DHT22;8103;51.340;12.326;2024-01-30T04:53:02;4.70;93.20
15997;DHT22;8103;51.340;12.326;2024-01-30T04:55:29;4.70;93.20
15997;DHT22;8103;51.340;12.326;2024-01-30T04:57:56;4.70;93.20
15997;DHT22;8103;51.340;12.326;2024-01-30T05:00:23;4.70;93.10
15997;DHT22;8103;51.340;12.326;2024-01-30T05:02:49;4.70;93.10
15997;DHT22;8103;51.340;12.326;2024-01-30T05:05:16;4.70;93.00
15997;DHT22;8103;51.340;12.326;2024-01-30T05:07:43;4.70;93.00
15997;DHT22;8103;51.340;12.326;2024-01-30T05:10:10;4.60;92.90
15997;DHT22;8103;51.340;12.326;2024-01-30T05:12:36;4.70;92.80
15997;DHT22;8103;51.340;12.326;2024-01-30T05:15:03;4.70;92.80
15997;DHT22;8103;51.340;12.326;2024-01-30T05:17:30;4.70;92.80
15997;DHT22;8103;51.340;12.326;2024-01-30T05:19:57;4.70;92.80
15997;DHT22;8103;51.340;12.326;2024-01-30T05:22:24;4.60;92.80
15997;DHT22;8103;51.340;12.326;2024-01-30T05:24:50;4.60;92.90
15997;DHT22;8103;51.340;12.326;2024-01-30T05:27:17;4.60;93.00
15997;DHT22;8103;51.340;12.326;2024-01-30T05:29:43;4.60;93.00
15997;DHT22;8103;51.340;12.326;2024-01-30T05:32:10;4.60;93.00
15997;DHT22;8103;51.340;12.326;2024-01-30T05:34:37;4.60;93.00
15997;DHT22;8103;51.340;12.326;2024-01-30T05:37:04;4.60;92.90
15997;DHT22;8103;51.340;12.326;2024-01-30T05:39:30;4.60;92.80
15997;DHT22;8103;51.340;12.326;2024-01-30T05:41:59;4.60;92.60
15997;DHT22;8103;51.340;12.326;2024-01-30T05:44:26;4.60;92.40
15997;DHT22;8103;51.340;12.326;2024-01-30T05:46:53;4.60;92.30
15997;DHT22;8103;51.340;12.326;2024-01-30T05:49:20;4.70;92.20
15997;DHT22;8103;51.340;12.326;2024-01-30T05:51:47;4.70;92.20
15997;DHT22;8103;51.340;12.326;2024-01-30T05:54:13;4.60;92.10
15997;DHT22;8103;51.340;12.326;2024-01-30T05:56:42;4.60;92.10
15997;DHT22;8103;51.340;12.326;2024-01-30T05:59:09;4.60;92.10
15997;DHT22;8103;51.340;12.326;2024-01-30T06:01:36;4.60;92.10
15997;DHT22;8103;51.340;12.326;2024-01-30T06:04:03;4.60;92.10
15997;DHT22;8103;51.340;12.326;2024-01-30T06:06:30;4.60;92.10
15997;DHT22;8103;51.340;12.326;2024-01-30T06:08:56;4.60;92.10
15997;DHT22;8103;51.340;12.326;2024-01-30T06:11:23;4.50;92.20
15997;DHT22;8103;51.340;12.326;2024-01-30T06:13:50;4.50;92.20
15997;DHT22;8103;51.340;12.326;2024-01-30T06:16:16;4.50;92.30
15997;DHT22;8103;51.340;12.326;2024-01-30T06:18:43;4.50;92.30
15997;DHT22;8103;51.340;12.326;2024-01-30T06:21:10;4.50;92.30
15997;DHT22;8103;51.340;12.326;2024-01-30T06:23:38;4.40;92.30
15997;DHT22;8103;51.340;12.326;2024-01-30T06:26:07;4.40;92.40
15997;DHT22;8103;51.340;12.326;2024-01-30T06:28:34;4.40;92.40
15997;DHT22;8103;51.340;12.326;2024-01-30T06:31:01;4.40;92.40
15997;DHT22;8103;51.340;12.326;2024-01-30T06:33:28;4.40;92.30
15997;DHT22;8103;51.340;12.326;2024-01-30T06:35:54;4.40;92.30
15997;DHT22;8103;51.340;12.326;2024-01-30T06:38:21;4.40;92.30
15997;DHT22;8103;51.340;12.326;2024-01-30T06:40:48;4.40;92.30
15997;DHT22;8103;51.340;12.326;2024-01-30T06:43:14;4.40;92.20
15997;DHT22;8103;51.340;12.326;2024-01-30T06:45:41;4.40;92.20
15997;DHT22;8103;51.340;12.326;2024-01-30T06:48:09;4.40;92.20
15997;DHT22;8103;51.340;12.326;2024-01-30T06:50:36;4.40;92.10
15997;DHT22;8103;51.340;12.326;2024-01-30T06:53:03;4.40;92.10
15997;DHT22;8103;51.340;12.326;2024-01-30T06:55:29;4.40;92.00
15997;DHT22;8103;51.340;12.326;2024-01-30T06:57:56;4.50;91.90
15997;DHT22;8103;51.340;12.326;2024-01-30T07:00:23;4.50;91.90
15997;DHT22;8103;51.340;12.326;2024-01-30T07:02:50;4.50;91.70
15997;DHT22;8103;51.340;12.326;2024-01-30T07:05:16;4.50;91.70
15997;DHT22;8103;51.340;12.326;2024-01-30T07:07:44;4.50;91.60
15997;DHT22;8103;51.340;12.326;2024-01-30T07:10:10;4.50;91.50
15997;DHT22;8103;51.340;12.326;2024-01-30T07:12:37;4.50;91.50
15997;DHT22;8103;51.340;12.326;2024-01-30T07:15:05;4.50;91.40
15997;DHT22;8103;51.340;12.326;2024-01-30T07:17:35;4.50;91.40
15997;DHT22;8103;51.340;12.326;2024-01-30T07:20:01;4.60;91.40
15997;DHT22;8103;51.340;12.326;2024-01-30T07:22:31;4.60;91.40
15997;DHT22;8103;51.340;12.326;2024-01-30T07:24:58;4.60;91.30
15997;DHT22;8103;51.340;12.326;2024-01-30T07:27:25;4.60;91.20
15997;DHT22;8103;51.340;12.326;2024-01-30T07:29:52;4.70;91.10
15997;DHT22;8103;51.340;12.326;2024-01-30T07:32:18;4.70;91.10
15997;DHT22;8103;51.340;12.326;2024-01-30T07:34:45;4.70;91.10
15997;DHT22;8103;51.340;12.326;2024-01-30T07:37:18;4.80;90.90
15997;DHT22;8103;51.340;12.326;2024-01-30T07:39:45;4.80;90.90
15997;DHT22;8103;51.340;12.326;2024-01-30T07:42:12;4.90;90.80
15997;DHT22;8103;51.340;12.326;2024-01-30T07:44:39;4.90;90.70
15997;DHT22;8103;51.340;12.326;2024-01-30T07:47:05;5.00;90.60
15997;DHT22;8103;51.340;12.326;2024-01-30T07:49:32;5.00;90.50
15997;DHT22;8103;51.340;12.326;2024-01-30T07:51:59;5.10;90.40
15997;DHT22;8103;51.340;12.326;2024-01-30T07:54:26;5.10;90.30
15997;DHT22;8103;51.340;12.326;2024-01-30T07:56:53;5.20;90.20
15997;DHT22;8103;51.340;12.326;2024-01-30T07:59:19;5.20;90.20
15997;DHT22;8103;51.340;12.326;2024-01-30T08:01:48;5.30;90.20
15997;DHT22;8103;51.340;12.326;2024-01-30T08:04:15;5.30;90.30
15997;DHT22;8103;51.340;12.326;2024-01-30T08:06:42;5.50;90.50
15997;DHT22;8103;51.340;12.326;2024-01-30T08:09:09;5.60;90.10
15997;DHT22;8103;51.340;12.326;2024-01-30T08:11:37;5.70;89.70
15997;DHT22;8103;51.340;12.326;2024-01-30T08:14:04;5.80;89.00
15997;DHT22;8103;51.340;12.326;2024-01-30T08:16:30;5.80;88.30
15997;DHT22;8103;51.340;12.326;2024-01-30T08:18:57;5.80;88.00
15997;DHT22;8103;51.340;12.326;2024-01-30T08:21:24;5.90;87.80
15997;DHT22;8103;51.340;12.326;2024-01-30T08:23:51;5.90;87.30
15997;DHT22;8103;51.340;12.326;2024-01-30T08:26:18;6.00;87.30
15997;DHT22;8103;51.340;12.326;2024-01-30T08:28:45;6.00;87.10
15997;DHT22;8103;51.340;12.326;2024-01-30T08:31:12;6.00;86.50
15997;DHT22;8103;51.340;12.326;2024-01-30T08:33:38;6.10;86.50
15997;DHT22;8103;51.340;12.326;2024-01-30T08:36:06;6.20;86.30
15997;DHT22;8103;51.340;12.326;2024-01-30T08:38:32;6.20;85.90
15997;DHT22;8103;51.340;12.326;2024-01-30T08:40:59;6.20;85.60
15997;DHT22;8103;51.340;12.326;2024-01-30T08:43:26;6.30;85.50
15997;DHT22;8103;51.340;12.326;2024-01-30T08:45:52;6.30;85.30
15997;DHT22;8103;51.340;12.326;2024-01-30T08:48:19;6.40;85.20
15997;DHT22;8103;51.340;12.326;2024-01-30T08:50:47;6.40;84.90
15997;DHT22;8103;51.340;12.326;2024-01-30T08:53:14;6.40;84.70
15997;DHT22;8103;51.340;12.326;2024-01-30T08:55:41;6.50;84.50
15997;DHT22;8103;51.340;12.326;2024-01-30T08:58:07;6.60;84.40
15997;DHT22;8103;51.340;12.326;2024-01-30T09:00:34;6.60;84.40
15997;DHT22;8103;51.340;12.326;2024-01-30T09:03:01;6.70;84.00
15997;DHT22;8103;51.340;12.326;2024-01-30T09:05:27;6.90;83.60
15997;DHT22;8103;51.340;12.326;2024-01-30T09:07:54;7.00;83.00
15997;DHT22;8103;51.340;12.326;2024-01-30T09:10:21;7.20;83.00
15997;DHT22;8103;51.340;12.326;2024-01-30T09:12:48;7.40;82.10
15997;DHT22;8103;51.340;12.326;2024-01-30T09:15:15;7.60;81.60
15997;DHT22;8103;51.340;12.326;2024-01-30T09:17:42;7.70;81.00
15997;DHT22;8103;51.340;12.326;2024-01-30T09:20:09;7.80;80.30
15997;DHT22;8103;51.340;12.326;2024-01-30T09:22:36;7.90;80.20
15997;DHT22;8103;51.340;12.326;2024-01-30T09:25:03;8.00;80.10
15997;DHT22;8103;51.340;12.326;2024-01-30T09:27:30;8.20;79.20
15997;DHT22;8103;51.340;12.326;2024-01-30T09:29:57;8.30;78.70
15997;DHT22;8103;51.340;12.326;2024-01-30T09:32:24;8.50;78.10
15997;DHT22;8103;51.340;12.326;2024-01-30T09:34:51;8.60;77.90
15997;DHT22;8103;51.340;12.326;2024-01-30T09:37:17;8.60;77.60
15997;DHT22;8103;51.340;12.326;2024-01-30T09:39:44;8.80;77.70
15997;DHT22;8103;51.340;12.326;2024-01-30T09:42:22;9.00;76.90
15997;DHT22;8103;51.340;12.326;2024-01-30T09:44:53;9.10;76.40
15997;DHT22;8103;51.340;12.326;2024-01-30T09:47:20;9.10;76.10
15997;DHT22;8103;51.340;12.326;2024-01-30T09:49:47;9.20;76.10
15997;DHT22;8103;51.340;12.326;2024-01-30T09:52:15;9.30;75.40
15997;DHT22;8103;51.340;12.326;2024-01-30T09:54:42;9.30;75.40
15997;DHT22;8103;51.340;12.326;2024-01-30T09:57:11;9.30;75.70
15997;DHT22;8103;51.340;12.326;2024-01-30T09:59:38;9.20;76.00
15997;DHT22;8103;51.340;12.326;2024-01-30T10:02:04;9.20;76.10
15997;DHT22;8103;51.340;12.326;2024-01-30T10:04:31;9.30;76.10
15997;DHT22;8103;51.340;12.326;2024-01-30T10:07:01;9.50;76.50
15997;DHT22;8103;51.340;12.326;2024-01-30T10:09:29;9.70;75.40
15997;DHT22;8103;51.340;12.326;2024-01-30T10:11:58;10.00;75.00
15997;DHT22;8103;51.340;12.326;2024-01-30T10:14:24;10.20;74.30
15997;DHT22;8103;51.340;12.326;2024-01-30T10:16:51;10.30;73.50
15997;DHT22;8103;51.340;12.326;2024-01-30T10:19:19;10.40;73.40
15997;DHT22;8103;51.340;12.326;2024-01-30T10:21:46;10.50;73.00
15997;DHT22;8103;51.340;12.326;2024-01-30T10:24:13;10.60;72.50
15997;DHT22;8103;51.340;12.326;2024-01-30T10:26:40;10.50;72.60
15997;DHT22;8103;51.340;12.326;2024-01-30T10:29:10;10.40;72.90
15997;DHT22;8103;51.340;12.326;2024-01-30T10:31:36;10.40;73.40
15997;DHT22;8103;51.340;12.326;2024-01-30T10:34:03;10.40;73.60
15997;DHT22;8103;51.340;12.326;2024-01-30T10:36:41;10.40;73.80
15997;DHT22;8103;51.340;12.326;2024-01-30T10:39:09;10.50;73.60
15997;DHT22;8103;51.340;12.326;2024-01-30T10:41:44;10.60;73.50
15997;DHT22;8103;51.340;12.326;2024-01-30T10:44:11;10.80;73.60
15997;DHT22;8103;51.340;12.326;2024-01-30T10:46:39;10.80;73.40
15997;DHT22;8103;51.340;12.326;2024-01-30T10:49:07;11.00;73.20
15997;DHT22;8103;51.340;12.326;2024-01-30T10:51:34;11.00;72.90
15997;DHT22;8103;51.340;12.326;2024-01-30T10:54:03;11.00;73.10
15997;DHT22;8103;51.340;12.326;2024-01-30T10:56:32;11.10;73.30
15997;DHT22;8103;51.340;12.326;2024-01-30T10:59:00;11.10;73.20
15997;DHT22;8103;51.340;12.326;2024-01-30T11:01:28;11.20;73.10
15997;DHT22;8103;51.340;12.326;2024-01-30T11:03:55;11.30;73.00
15997;DHT22;8103;51.340;12.326;2024-01-30T11:06:25;11.20;73.60
15997;DHT22;8103;51.340;12.326;2024-01-30T11:09:02;11.20;73.30
15997;DHT22;8103;51.340;12.326;2024-01-30T11:11:57;11.20;73.50
15997;DHT22;8103;51.340;12.326;2024-01-30T11:14:28;11.10;74.00
15997;DHT22;8103;51.340;12.326;2024-01-30T11:16:59;11.10;74.20
15997;DHT22;8103;51.340;12.326;2024-01-30T11:19:26;11.10;74.40
15997;DHT22;8103;51.340;12.326;2024-01-30T11:21:54;11.10;74.60
15997;DHT22;8103;51.340;12.326;2024-01-30T11:24:21;11.10;75.00
15997;DHT22;8103;51.340;12.326;2024-01-30T11:26:56;11.10;75.30
15997;DHT22;8103;51.340;12.326;2024-01-30T11:29:25;11.10;75.60
15997;DHT22;8103;51.340;12.326;2024-01-30T11:31:53;11.10;75.60
15997;DHT22;8103;51.340;12.326;2024-01-30T11:34:21;11.10;76.00
15997;DHT22;8103;51.340;12.326;2024-01-30T11:36:59;11.10;76.40
15997;DHT22;8103;51.340;12.326;2024-01-30T11:39:26;11.10;76.80
15997;DHT22;8103;51.340;12.326;2024-01-30T11:41:53;11.10;76.90
15997;DHT22;8103;51.340;12.326;2024-01-30T11:44:20;11.10;77.20
15997;DHT22;8103;51.340;12.326;2024-01-30T11:46:48;11.20;77.40
15997;DHT22;8103;51.340;12.326;2024-01-30T11:49:16;11.30;77.40
15997;DHT22;8103;51.340;12.326;2024-01-30T11:51:45;11.30;77.40
15997;DHT22;8103;51.340;12.326;2024-01-30T11:54:12;11.50;77.20
15997;DHT22;8103;51.340;12.326;2024-01-30T11:56:40;11.60;76.90
15997;DHT22;8103;51.340;12.326;2024-01-30T11:59:06;11.80;76.70
15997;DHT22;8103;51.340;12.326;2024-01-30T12:01:33;11.90;76.30
15997;DHT22;8103;51.340;12.326;2024-01-30T12:04:00;11.90;77.00
15997;DHT22;8103;51.340;12.326;2024-01-30T12:06:27;12.00;76.20
15997;DHT22;8103;51.340;12.326;2024-01-30T12:09:02;12.20;76.00
15997;DHT22;8103;51.340;12.326;2024-01-30T12:11:47;12.30;75.60
15997;DHT22;8103;51.340;12.326;2024-01-30T12:14:14;12.40;75.60
15997;DHT22;8103;51.340;12.326;2024-01-30T12:16:41;12.50;75.80
15997;DHT22;8103;51.340;12.326;2024-01-30T12:19:08;12.50;76.20
15997;DHT22;8103;51.340;12.326;2024-01-30T12:21:35;12.70;76.30
15997;DHT22;8103;51.340;12.326;2024-01-30T12:24:02;12.70;76.40
15997;DHT22;8103;51.340;12.326;2024-01-30T12:26:29;12.80;76.70
15997;DHT22;8103;51.340;12.326;2024-01-30T12:28:56;12.80;77.00
15997;DHT22;8103;51.340;12.326;2024-01-30T12:31:28;12.70;77.40
15997;DHT22;8103;51.340;12.326;2024-01-30T12:33:55;12.80;77.90
15997;DHT22;8103;51.340;12.326;2024-01-30T12:36:23;12.80;78.10
15997;DHT22;8103;51.340;12.326;2024-01-30T12:38:50;12.80;78.30
15997;DHT22;8103;51.340;12.326;2024-01-30T12:41:17;12.90;78.50
15997;DHT22;8103;51.340;12.326;2024-01-30T12:43:45;12.90;78.70
15997;DHT22;8103;51.340;12.326;2024-01-30T12:46:11;12.90;78.70
15997;DHT22;8103;51.340;12.326;2024-01-30T12:48:38;13.00;78.90
15997;DHT22;8103;51.340;12.326;2024-01-30T12:51:05;13.00;79.10
15997;DHT22;8103;51.340;12.326;2024-01-30T12:53:31;13.00;79.30
15997;DHT22;8103;51.340;12.326;2024-01-30T12:55:59;13.10;79.50
15997;DHT22;8103;51.340;12.326;2024-01-30T12:58:26;13.20;79.30
15997;DHT22;8103;51.340;12.326;2024-01-30T13:00:53;13.10;79.50
15997;DHT22;8103;51.340;12.326;2024-01-30T13:03:20;13.10;79.90
15997;DHT22;8103;51.340;12.326;2024-01-30T13:05:47;13.10;80.10
15997;DHT22;8103;51.340;12.326;2024-01-30T13:08:14;13.10;80.10
15997;DHT22;8103;51.340;12.326;2024-01-30T13:10:40;13.20;79.80
15997;DHT22;8103;51.340;12.326;2024-01-30T13:13:07;13.20;79.30
15997;DHT22;8103;51.340;12.326;2024-01-30T13:15:39;13.20;79.00
15997;DHT22;8103;51.340;12.326;2024-01-30T13:18:06;13.30;78.70
15997;DHT22;8103;51.340;12.326;2024-01-30T13:20:33;13.30;78.10
15997;DHT22;8103;51.340;12.326;2024-01-30T13:23:00;13.30;77.70
15997;DHT22;8103;51.340;12.326;2024-01-30T13:25:27;13.30;77.30
15997;DHT22;8103;51.340;12.326;2024-01-30T13:27:54;13.30;77.50
15997;DHT22;8103;51.340;12.326;2024-01-30T13:30:20;13.30;77.60
15997;DHT22;8103;51.340;12.326;2024-01-30T13:32:47;13.50;77.40
15997;DHT22;8103;51.340;12.326;2024-01-30T13:35:14;13.50;76.60
15997;DHT22;8103;51.340;12.326;2024-01-30T13:37:41;13.70;76.40
15997;DHT22;8103;51.340;12.326;2024-01-30T13:40:08;14.20;74.70
15997;DHT22;8103;51.340;12.326;2024-01-30T13:42:38;14.80;72.90
15997;DHT22;8103;51.340;12.326;2024-01-30T13:45:05;15.30;70.70
15997;DHT22;8103;51.340;12.326;2024-01-30T13:47:32;15.30;69.00
15997;DHT22;8103;51.340;12.326;2024-01-30T13:49:59;15.10;69.20
15997;DHT22;8103;51.340;12.326;2024-01-30T13:52:25;14.90;69.80
15997;DHT22;8103;51.340;12.326;2024-01-30T13:54:57;14.60;70.80
15997;DHT22;8103;51.340;12.326;2024-01-30T13:57:24;14.40;71.90
15997;DHT22;8103;51.340;12.326;2024-01-30T13:59:51;14.30;72.30
15997;DHT22;8103;51.340;12.326;2024-01-30T14:02:17;14.00;73.10
15997;DHT22;8103;51.340;12.326;2024-01-30T14:04:44;13.70;74.00
15997;DHT22;8103;51.340;12.326;2024-01-30T14:07:11;13.50;74.90
15997;DHT22;8103;51.340;12.326;2024-01-30T14:09:38;13.30;76.00
15997;DHT22;8103;51.340;12.326;2024-01-30T14:12:04;13.10;77.50
15997;DHT22;8103;51.340;12.326;2024-01-30T14:14:31;13.00;77.50
15997;DHT22;8103;51.340;12.326;2024-01-30T14:16:58;12.80;78.90
15997;DHT22;8103;51.340;12.326;2024-01-30T14:19:24;12.80;78.90
15997;DHT22;8103;51.340;12.326;2024-01-30T14:21:51;12.70;79.40
15997;DHT22;8103;51.340;12.326;2024-01-30T14:24:18;12.60;79.80
15997;DHT22;8103;51.340;12.326;2024-01-30T14:26:45;12.50;80.30
15997;DHT22;8103;51.340;12.326;2024-01-30T14:29:11;12.50;80.80
15997;DHT22;8103;51.340;12.326;2024-01-30T14:31:38;12.40;81.20
15997;DHT22;8103;51.340;12.326;2024-01-30T14:34:05;12.40;81.80
15997;DHT22;8103;51.340;12.326;2024-01-30T14:36:32;12.30;82.20
15997;DHT22;8103;51.340;12.326;2024-01-30T14:38:58;12.20;83.00
15997;DHT22;8103;51.340;12.326;2024-01-30T14:41:25;12.10;83.60
15997;DHT22;8103;51.340;12.326;2024-01-30T14:43:52;12.00;84.20
15997;DHT22;8103;51.340;12.326;2024-01-30T14:46:19;11.90;84.90
15997;DHT22;8103;51.340;12.326;2024-01-30T14:48:46;11.90;86.30
15997;DHT22;8103;51.340;12.326;2024-01-30T14:51:13;11.80;86.00
15997;DHT22;8103;51.340;12.326;2024-01-30T14:53:40;11.70;86.30
15997;DHT22;8103;51.340;12.326;2024-01-30T14:56:07;11.70;86.70
15997;DHT22;8103;51.340;12.326;2024-01-30T14:58:34;11.70;87.10
15997;DHT22;8103;51.340;12.326;2024-01-30T15:01:01;11.60;87.40
15997;DHT22;8103;51.340;12.326;2024-01-30T15:03:27;11.60;87.70
15997;DHT22;8103;51.340;12.326;2024-01-30T15:05:57;11.60;88.00
15997;DHT22;8103;51.340;12.326;2024-01-30T15:08:24;11.60;88.30
15997;DHT22;8103;51.340;12.326;2024-01-30T15:10:51;11.50;88.70
15997;DHT22;8103;51.340;12.326;2024-01-30T15:13:18;11.50;89.00
15997;DHT22;8103;51.340;12.326;2024-01-30T15:15:45;11.40;89.40
15997;DHT22;8103;51.340;12.326;2024-01-30T15:18:12;11.40;89.80
15997;DHT22;8103;51.340;12.326;2024-01-30T15:20:39;11.40;90.00
15997;DHT22;8103;51.340;12.326;2024-01-30T15:23:05;11.40;90.20
15997;DHT22;8103;51.340;12.326;2024-01-30T15:25:32;11.30;90.40
15997;DHT22;8103;51.340;12.326;2024-01-30T15:27:59;11.30;90.50
15997;DHT22;8103;51.340;12.326;2024-01-30T15:34:13;11.20;90.90
15997;DHT22;8103;51.340;12.326;2024-01-30T15:36:40;11.10;91.20
15997;DHT22;8103;51.340;12.326;2024-01-30T15:39:06;11.00;91.30
15997;DHT22;8103;51.340;12.326;2024-01-30T15:41:33;11.00;91.50
15997;DHT22;8103;51.340;12.326;2024-01-30T15:44:00;10.90;91.70